Time;durP1;ratioP1;P1;durP2;ratioP2;P2;SDS_P1;SDS_P2;PMS_P1;PMS_P2;Temp;Humidity;BMP_temperature;BMP_pressure;BME280_temperature;BME280_humidity;BME280_pressure;Samples;Min_cycle;Max_cycle;Signal;HPM_P1;HPM_P2
2021/04/18 00:00:19;;;;;;;6.30;3.13;;;7.40;76.50;;;;;;5031890;28;20040;-77
2021/04/18 00:02:47;;;;;;;5.78;2.65;;;7.30;76.90;;;;;;5031884;28;20037;-77
2021/04/18 00:05:14;;;;;;;4.88;2.60;;;7.20;77.40;;;;;;5031749;28;20022;-77
2021/04/18 00:07:39;;;;;;;5.50;2.53;;;7.10;78.10;;;;;;5031923;28;20481;-77
2021/04/18 00:10:07;;;;;;;5.53;2.70;;;7.00;78.50;;;;;;5033022;28;20025;-77
2021/04/18 00:12:32;;;;;;;6.57;2.55;;;7.10;78.70;;;;;;5031710;28;20018;-77
2021/04/18 00:14:58;;;;;;;4.90;2.47;;;7.10;78.80;;;;;;5032888;28;20263;-77
2021/04/18 00:17:23;;;;;;;4.72;2.35;;;7.10;78.80;;;;;;5031806;28;20027;-77
2021/04/18 00:19:49;;;;;;;3.95;1.98;;;7.20;78.70;;;;;;5031819;28;20021;-77
2021/04/18 00:22:15;;;;;;;5.03;2.22;;;7.10;78.70;;;;;;5031755;28;20215;-77
2021/04/18 00:24:40;;;;;;;5.75;2.50;;;7.10;79.00;;;;;;5031759;28;20025;-77
2021/04/18 00:27:07;;;;;;;6.88;2.53;;;7.00;79.40;;;;;;5031508;28;20017;-77
2021/04/18 00:29:32;;;;;;;4.50;2.80;;;6.90;79.90;;;;;;5032935;28;20503;-78
2021/04/18 00:31:58;;;;;;;6.00;2.50;;;6.90;80.30;;;;;;5032828;28;20041;-78
2021/04/18 00:34:24;;;;;;;6.15;2.47;;;6.90;80.30;;;;;;5031556;28;20025;-77
2021/04/18 00:36:50;;;;;;;4.93;2.35;;;6.90;80.50;;;;;;5031645;28;20029;-77
2021/04/18 00:39:15;;;;;;;8.88;3.35;;;6.90;80.70;;;;;;5032919;28;20070;-78
2021/04/18 00:41:41;;;;;;;9.88;4.47;;;6.80;80.80;;;;;;5031407;28;20055;-77
2021/04/18 00:44:06;;;;;;;7.47;5.20;;;6.90;81.30;;;;;;5032576;28;20484;-77
2021/04/18 00:46:32;;;;;;;6.93;4.05;;;6.80;82.40;;;;;;5031460;28;20393;-78
2021/04/18 00:48:58;;;;;;;5.93;3.28;;;6.80;82.50;;;;;;5031451;28;20057;-78
2021/04/18 00:51:23;;;;;;;5.20;2.83;;;6.70;82.30;;;;;;5032573;28;20108;-77
2021/04/18 00:53:49;;;;;;;5.25;2.78;;;6.60;82.50;;;;;;5032744;28;20041;-77
2021/04/18 00:56:15;;;;;;;4.13;3.03;;;6.60;82.60;;;;;;5031412;28;20470;-77
2021/04/18 00:58:40;;;;;;;6.60;3.58;;;6.60;82.60;;;;;;5031323;28;20021;-77
2021/04/18 01:01:07;;;;;;;6.72;3.67;;;6.50;83.20;;;;;;5032613;28;20029;-77
2021/04/18 01:03:33;;;;;;;7.57;3.58;;;6.50;83.90;;;;;;5034974;28;20090;-77
2021/04/18 01:05:59;;;;;;;6.30;3.22;;;6.50;84.00;;;;;;5036272;28;20057;-77
2021/04/18 01:08:24;;;;;;;7.72;3.63;;;6.50;84.10;;;;;;5036278;28;20535;-78
2021/04/18 01:10:50;;;;;;;5.18;3.15;;;6.40;84.30;;;;;;5034906;28;20389;-77
2021/04/18 01:13:16;;;;;;;8.32;3.20;;;6.40;84.50;;;;;;5034788;28;20033;-77
2021/04/18 01:15:41;;;;;;;5.10;2.78;;;6.40;84.50;;;;;;5035967;28;20381;-77
2021/04/18 01:18:07;;;;;;;6.05;2.63;;;6.40;84.50;;;;;;5034811;28;20031;-77
2021/04/18 01:20:33;;;;;;;5.60;2.67;;;6.30;84.50;;;;;;5034822;28;20492;-77
2021/04/18 01:22:58;;;;;;;4.65;2.40;;;6.30;84.60;;;;;;5035991;28;20385;-77
2021/04/18 01:25:24;;;;;;;6.63;1.92;;;6.20;84.80;;;;;;5035854;28;20433;-77
2021/04/18 01:27:50;;;;;;;6.75;2.95;;;6.20;84.80;;;;;;5034422;28;20477;-78
2021/04/18 01:30:23;;;;;;;3.75;2.47;;;6.00;85.20;;;;;;5034639;28;20025;-77
2021/04/18 01:32:52;;;;;;;6.35;2.67;;;6.00;85.60;;;;;;5034529;28;20064;-77
2021/04/18 01:35:18;;;;;;;4.13;2.27;;;5.80;85.80;;;;;;5034520;28;20025;-78
2021/04/18 01:37:44;;;;;;;4.72;2.58;;;5.80;86.10;;;;;;5034467;28;20112;-77
2021/04/18 01:40:15;;;;;;;4.50;2.30;;;5.70;86.00;;;;;;5034436;28;20061;-78
2021/04/18 01:42:42;;;;;;;5.00;2.10;;;5.70;86.20;;;;;;5034301;28;20029;-77
2021/04/18 01:45:09;;;;;;;6.63;2.08;;;5.80;86.20;;;;;;5034104;28;20045;-77
2021/04/18 01:47:35;;;;;;;5.50;2.30;;;5.80;86.10;;;;;;5034264;28;20029;-77
2021/04/18 01:50:01;;;;;;;4.43;2.50;;;5.80;85.90;;;;;;5035457;28;20120;-77
2021/04/18 01:52:27;;;;;;;5.03;2.70;;;5.80;86.00;;;;;;5034179;28;20021;-77
2021/04/18 01:54:52;;;;;;;4.22;2.13;;;5.80;86.00;;;;;;5034109;28;20026;-77
2021/04/18 01:57:18;;;;;;;5.95;2.83;;;5.80;85.90;;;;;;5034074;28;20075;-78
2021/04/18 01:59:45;;;;;;;5.03;2.60;;;5.70;86.00;;;;;;5035204;28;20028;-77
2021/04/18 02:02:12;;;;;;;6.47;2.70;;;5.50;86.70;;;;;;5034005;28;20026;-77
2021/04/18 02:04:38;;;;;;;5.03;2.60;;;5.40;87.40;;;;;;5035208;28;20052;-77
2021/04/18 02:07:05;;;;;;;5.57;2.60;;;5.30;87.80;;;;;;5035225;28;20025;-77
2021/04/18 02:09:33;;;;;;;5.45;2.70;;;5.30;87.70;;;;;;5035304;28;20427;-77
2021/04/18 02:12:00;;;;;;;6.65;3.13;;;5.30;87.90;;;;;;5033879;28;20119;-77
2021/04/18 02:14:25;;;;;;;6.78;2.92;;;5.30;88.00;;;;;;5034847;28;20028;-77
2021/04/18 02:16:52;;;;;;;5.47;2.58;;;5.30;88.20;;;;;;5033613;28;20029;-77
2021/04/18 02:19:18;;;;;;;6.70;3.00;;;5.30;88.30;;;;;;5033780;28;20026;-77
2021/04/18 02:21:44;;;;;;;5.32;2.33;;;5.30;88.30;;;;;;5035024;28;20025;-77
2021/04/18 02:24:10;;;;;;;4.63;2.90;;;5.30;88.30;;;;;;5034911;28;20034;-77
2021/04/18 02:26:35;;;;;;;4.53;2.92;;;5.20;88.30;;;;;;5034886;28;20419;-77
2021/04/18 02:29:01;;;;;;;5.05;2.58;;;5.30;88.30;;;;;;5033150;28;20033;-77
2021/04/18 02:31:27;;;;;;;5.88;2.80;;;5.30;88.00;;;;;;5033464;28;20525;-77
2021/04/18 02:33:52;;;;;;;6.75;2.90;;;5.30;87.90;;;;;;5034631;28;20022;-78
2021/04/18 02:36:18;;;;;;;4.20;2.25;;;5.20;87.90;;;;;;5033502;28;20123;-77
2021/04/18 02:38:43;;;;;;;5.25;2.30;;;5.10;88.40;;;;;;5033360;28;20032;-77
2021/04/18 02:41:09;;;;;;;5.25;2.50;;;5.10;88.90;;;;;;5033342;28;20115;-78
2021/04/18 02:43:34;;;;;;;3.13;2.25;;;5.10;89.10;;;;;;5033282;28;20176;-77
2021/04/18 02:46:00;;;;;;;3.70;2.20;;;5.10;89.00;;;;;;5032977;28;20541;-77
2021/04/18 02:48:26;;;;;;;4.45;2.22;;;5.20;88.80;;;;;;5033482;28;20055;-77
2021/04/18 02:50:51;;;;;;;5.72;2.95;;;5.20;88.60;;;;;;5034411;28;20029;-78
2021/04/18 02:53:17;;;;;;;7.18;3.25;;;5.20;88.90;;;;;;5033160;28;20025;-77
2021/04/18 02:55:42;;;;;;;5.18;3.05;;;5.20;88.90;;;;;;5034281;28;20022;-77
2021/04/18 02:58:08;;;;;;;5.90;3.55;;;5.20;88.90;;;;;;5034218;28;20044;-78
2021/04/18 03:00:34;;;;;;;6.88;3.78;;;5.10;89.80;;;;;;5033009;28;20017;-77
2021/04/18 03:02:59;;;;;;;3.65;2.40;;;5.10;89.90;;;;;;5032954;28;20492;-77
2021/04/18 03:05:25;;;;;;;4.78;2.85;;;5.00;90.00;;;;;;5032734;28;20056;-77
2021/04/18 03:07:50;;;;;;;4.53;2.50;;;4.90;90.10;;;;;;5032794;28;20095;-77
2021/04/18 03:10:16;;;;;;;4.60;2.53;;;4.90;90.20;;;;;;5034044;28;20103;-77
2021/04/18 03:12:41;;;;;;;5.03;2.70;;;4.80;90.30;;;;;;5032690;28;20022;-77
2021/04/18 03:15:08;;;;;;;6.10;3.17;;;4.80;90.30;;;;;;5033733;28;20022;-82
2021/04/18 03:17:34;;;;;;;6.68;3.22;;;4.70;90.40;;;;;;5033795;28;20060;-81
2021/04/18 03:19:59;;;;;;;6.85;2.58;;;4.70;90.90;;;;;;5032565;28;20397;-81
2021/04/18 03:22:25;;;;;;;4.93;2.53;;;4.60;90.70;;;;;;5032527;28;20021;-81
2021/04/18 03:24:51;;;;;;;6.25;3.33;;;4.60;90.80;;;;;;5032285;28;20025;-81
2021/04/18 03:27:16;;;;;;;8.50;3.15;;;4.60;91.00;;;;;;5032296;28;20116;-81
2021/04/18 03:29:42;;;;;;;4.72;3.03;;;4.50;91.00;;;;;;5033697;28;20495;-81
2021/04/18 03:32:07;;;;;;;4.68;2.90;;;4.50;91.10;;;;;;5033470;28;20038;-81
2021/04/18 03:34:33;;;;;;;7.38;3.00;;;4.50;91.10;;;;;;5032398;28;20044;-81
2021/04/18 03:36:58;;;;;;;4.70;2.53;;;4.50;91.00;;;;;;5032271;28;20026;-82
2021/04/18 03:39:24;;;;;;;5.55;3.30;;;4.60;91.00;;;;;;5032227;28;20089;-81
2021/04/18 03:41:50;;;;;;;4.47;2.72;;;4.60;90.90;;;;;;5032166;28;20060;-81
2021/04/18 03:44:15;;;;;;;10.13;2.17;;;4.70;90.90;;;;;;5032066;28;20041;-81
2021/04/18 03:46:41;;;;;;;14.57;2.50;;;4.70;90.80;;;;;;5032061;28;20033;-81
2021/04/18 03:49:07;;;;;;;31.00;2.72;;;4.70;90.80;;;;;;5032116;28;20026;-81
2021/04/18 03:51:32;;;;;;;5.97;2.25;;;4.70;90.80;;;;;;5032010;28;20036;-81
2021/04/18 03:53:58;;;;;;;2.75;1.88;;;4.60;90.80;;;;;;5033270;28;20021;-81
2021/04/18 03:56:24;;;;;;;5.15;2.10;;;4.50;90.80;;;;;;5033321;28;20060;-81
2021/04/18 03:58:49;;;;;;;4.30;2.42;;;4.40;91.20;;;;;;5032008;28;20030;-81
2021/04/18 04:01:15;;;;;;;4.53;2.28;;;4.30;91.50;;;;;;5031775;28;20499;-81
2021/04/18 04:03:40;;;;;;;10.95;2.25;;;4.20;91.60;;;;;;5032809;28;20033;-81
2021/04/18 04:06:06;;;;;;;9.43;2.40;;;4.30;91.70;;;;;;5032501;28;20145;-81
2021/04/18 04:08:32;;;;;;;5.68;1.65;;;4.30;91.60;;;;;;5032903;28;20041;-81
2021/04/18 04:10:58;;;;;;;3.00;1.70;;;4.30;91.50;;;;;;5031667;28;20025;-81
2021/04/18 04:13:23;;;;;;;22.52;2.58;;;4.30;91.40;;;;;;5031830;28;20036;-81
2021/04/18 04:15:49;;;;;;;2.67;1.60;;;4.30;91.30;;;;;;5033053;28;20025;-81
2021/04/18 04:18:15;;;;;;;4.70;2.17;;;4.30;91.30;;;;;;5031671;28;20052;-81
2021/04/18 04:20:40;;;;;;;3.28;1.80;;;4.30;91.20;;;;;;5031855;28;20029;-81
2021/04/18 04:23:06;;;;;;;3.17;1.63;;;4.30;91.30;;;;;;5033089;28;20156;-81
2021/04/18 04:25:33;;;;;;;3.00;1.65;;;4.40;91.30;;;;;;5033025;28;20034;-81
2021/04/18 04:27:58;;;;;;;28.05;2.45;;;4.30;91.30;;;;;;5031712;28;20033;-81
2021/04/18 04:30:25;;;;;;;10.35;1.38;;;4.30;91.40;;;;;;5031649;28;20030;-81
2021/04/18 04:32:50;;;;;;;2.20;1.30;;;4.30;91.40;;;;;;5031521;28;20032;-81
2021/04/18 04:35:16;;;;;;;3.45;1.42;;;4.30;91.40;;;;;;5032916;28;20602;-81
2021/04/18 04:37:42;;;;;;;3.08;1.13;;;4.30;91.40;;;;;;5034064;28;20493;-81
2021/04/18 04:40:07;;;;;;;4.03;1.10;;;4.10;91.60;;;;;;5036855;28;20060;-81
2021/04/18 04:42:33;;;;;;;3.60;1.55;;;4.00;91.80;;;;;;5036810;28;20064;-81
2021/04/18 04:44:59;;;;;;;3.92;1.75;;;4.00;91.90;;;;;;5036460;28;20096;-81
2021/04/18 04:47:24;;;;;;;3.58;1.80;;;4.00;92.00;;;;;;5035350;28;20473;-81
2021/04/18 04:49:50;;;;;;;3.47;1.40;;;4.00;92.10;;;;;;5035474;28;20017;-81
2021/04/18 04:52:15;;;;;;;3.28;1.55;;;4.00;92.00;;;;;;5035373;28;20028;-81
2021/04/18 04:54:41;;;;;;;3.85;1.50;;;4.00;92.00;;;;;;5035278;28;20072;-81
2021/04/18 04:57:06;;;;;;;3.60;1.45;;;4.10;91.80;;;;;;5035274;28;20029;-81
2021/04/18 04:59:32;;;;;;;2.95;1.38;;;4.10;91.80;;;;;;5036412;28;20052;-81
2021/04/18 05:01:58;;;;;;;3.75;1.42;;;4.10;91.70;;;;;;5036537;28;20057;-81
2021/04/18 05:04:23;;;;;;;4.38;2.00;;;4.20;91.70;;;;;;5034889;28;20030;-81
2021/04/18 05:06:49;;;;;;;3.85;1.77;;;4.20;91.70;;;;;;5034872;28;20037;-81
2021/04/18 05:09:14;;;;;;;2.92;1.42;;;4.20;91.70;;;;;;5030208;28;20393;-81
2021/04/18 05:11:40;;;;;;;2.47;1.45;;;4.10;91.70;;;;;;5034076;28;20026;-81
2021/04/18 05:14:06;;;;;;;3.53;1.50;;;4.10;91.80;;;;;;5021025;28;20113;-81
2021/04/18 05:16:31;;;;;;;5.13;1.45;;;4.00;92.00;;;;;;5029571;28;20068;-81
2021/04/18 05:18:57;;;;;;;4.05;2.55;;;4.10;92.10;;;;;;5034355;28;20453;-81
2021/04/18 05:21:24;;;;;;;3.35;1.83;;;4.10;92.10;;;;;;5036089;28;20526;-81
2021/04/18 05:23:50;;;;;;;5.30;2.58;;;4.20;92.20;;;;;;5034443;28;20029;-81
2021/04/18 05:26:15;;;;;;;3.70;2.10;;;4.20;92.20;;;;;;5035383;28;20056;-81
2021/04/18 05:28:41;;;;;;;4.22;2.13;;;4.20;92.10;;;;;;5034109;28;20021;-81
2021/04/18 05:31:07;;;;;;;3.58;1.85;;;4.20;92.10;;;;;;5035414;28;20026;-81
2021/04/18 05:33:32;;;;;;;3.20;1.98;;;4.20;92.30;;;;;;5028622;28;20117;-81
2021/04/18 05:35:58;;;;;;;2.95;1.40;;;4.30;92.30;;;;;;5033833;28;20017;-81
2021/04/18 05:38:24;;;;;;;3.25;1.50;;;4.40;92.30;;;;;;5035300;28;20037;-81
2021/04/18 05:40:49;;;;;;;3.40;2.13;;;4.40;92.30;;;;;;5025774;28;20033;-81
2021/04/18 05:43:15;;;;;;;7.10;2.95;;;4.50;92.40;;;;;;5035021;28;20076;-81
2021/04/18 05:45:40;;;;;;;7.05;3.28;;;4.50;92.80;;;;;;5035003;28;20056;-83
2021/04/18 05:48:07;;;;;;;14.55;4.75;;;4.60;93.30;;;;;;5034754;28;20029;-82
2021/04/18 05:50:33;;;;;;;15.57;5.68;;;4.60;94.30;;;;;;5035038;28;20026;-82
2021/04/18 05:52:59;;;;;;;8.57;4.25;;;4.60;95.00;;;;;;5035026;28;20505;-82
2021/04/18 05:55:25;;;;;;;8.32;4.00;;;4.60;95.10;;;;;;5034875;28;20033;-81
2021/04/18 05:57:51;;;;;;;7.78;4.00;;;4.60;95.30;;;;;;5035007;28;20029;-82
2021/04/18 06:00:17;;;;;;;6.45;3.33;;;4.70;95.30;;;;;;5025695;28;20025;-81
2021/04/18 06:02:43;;;;;;;7.18;2.85;;;4.80;95.20;;;;;;5032309;28;20032;-82
2021/04/18 06:05:09;;;;;;;5.65;2.38;;;4.80;95.20;;;;;;5034656;28;20067;-83
2021/04/18 06:07:34;;;;;;;5.07;2.20;;;4.80;94.90;;;;;;5034923;28;20026;-85
2021/04/18 06:10:00;;;;;;;6.78;2.47;;;4.70;95.10;;;;;;5033614;28;20029;-82
2021/04/18 06:12:26;;;;;;;8.07;2.55;;;4.60;95.40;;;;;;5033692;28;20021;-82
2021/04/18 06:14:52;;;;;;;4.95;2.45;;;4.60;95.50;;;;;;5032731;28;20024;-82
2021/04/18 06:17:18;;;;;;;5.63;2.33;;;4.70;95.60;;;;;;5023564;28;20504;-82
2021/04/18 06:19:43;;;;;;;8.98;3.30;;;4.80;95.50;;;;;;5027752;28;20021;-82
2021/04/18 06:22:09;;;;;;;8.98;4.10;;;4.90;95.60;;;;;;5034476;28;20025;-81
2021/04/18 06:24:34;;;;;;;8.43;4.68;;;4.90;95.60;;;;;;5034455;28;20026;-82
2021/04/18 06:27:00;;;;;;;12.25;4.90;;;5.00;95.80;;;;;;5024943;28;20043;-82
2021/04/18 06:29:25;;;;;;;15.45;5.53;;;5.10;96.00;;;;;;5033029;28;20021;-82
2021/04/18 06:31:51;;;;;;;14.10;6.72;;;5.10;96.80;;;;;;5033029;28;20026;-82
2021/04/18 06:34:21;;;;;;;10.20;6.38;;;5.10;97.30;;;;;;5034154;28;20041;-82
2021/04/18 06:36:47;;;;;;;7.95;5.13;;;5.10;98.10;;;;;;5032899;28;20362;-82
2021/04/18 06:39:12;;;;;;;12.90;6.28;;;5.00;98.00;;;;;;5032881;28;20112;-82
2021/04/18 06:41:39;;;;;;;12.77;6.22;;;5.10;98.40;;;;;;5034097;28;20028;-82
2021/04/18 06:44:04;;;;;;;12.10;5.95;;;5.20;98.90;;;;;;5032393;28;20108;-82
2021/04/18 06:46:32;;;;;;;11.38;5.75;;;5.20;98.90;;;;;;5024556;28;20117;-82
2021/04/18 06:48:58;;;;;;;21.55;7.00;;;5.40;98.90;;;;;;5033809;28;20041;-82
2021/04/18 06:51:24;;;;;;;18.13;6.85;;;5.40;99.10;;;;;;5032261;28;20056;-82
2021/04/18 06:53:49;;;;;;;12.75;7.18;;;5.40;99.40;;;;;;5034072;28;20033;-82
2021/04/18 06:56:15;;;;;;;15.10;8.32;;;5.40;99.90;;;;;;5024344;28;20028;-82
2021/04/18 06:58:41;;;;;;;17.80;7.82;;;5.40;99.90;;;;;;5032510;28;20024;-82
2021/04/18 07:01:06;;;;;;;15.05;8.20;;;5.40;99.90;;;;;;5026332;28;20068;-82
2021/04/18 07:03:32;;;;;;;14.65;7.60;;;5.40;99.90;;;;;;5033773;28;20057;-82
2021/04/18 07:05:59;;;;;;;13.80;7.80;;;5.50;99.90;;;;;;5033488;28;20021;-82
2021/04/18 07:08:30;;;;;;;12.38;8.57;;;5.50;99.90;;;;;;5024248;28;21207;-82
2021/04/18 07:11:15;;;;;;;13.20;8.10;;;5.60;99.90;;;;;;5031509;28;20385;-82
2021/04/18 07:13:43;;;;;;;14.02;8.60;;;5.70;99.90;;;;;;5022794;28;20018;-82
2021/04/18 07:16:22;;;;;;;14.10;7.90;;;5.70;99.90;;;;;;5026674;28;20466;-82
2021/04/18 07:18:49;;;;;;;14.05;8.75;;;5.90;99.90;;;;;;5032143;28;20052;-82
2021/04/18 07:21:14;;;;;;;12.68;7.88;;;5.90;99.90;;;;;;5026569;28;20022;-82
2021/04/18 07:23:40;;;;;;;14.10;8.18;;;6.10;99.90;;;;;;5033431;28;20385;-82
2021/04/18 07:26:27;;;;;;;15.73;8.75;;;6.30;99.90;;;;;;5033148;28;20448;-82
2021/04/18 07:29:17;;;;;;;20.65;8.38;;;6.40;99.90;;;;;;5029624;28;20032;-82
2021/04/18 07:31:43;;;;;;;12.10;6.75;;;6.30;99.90;;;;;;5031975;28;20033;-85
2021/04/18 07:34:10;;;;;;;10.60;7.10;;;6.20;99.90;;;;;;5033960;28;20038;-83
2021/04/18 07:36:40;;;;;;;12.98;8.18;;;6.20;99.90;;;;;;5033449;28;20029;-82
2021/04/18 07:39:08;;;;;;;12.73;7.50;;;6.40;99.90;;;;;;5032262;28;20057;-82
2021/04/18 07:41:38;;;;;;;11.18;6.82;;;6.40;99.90;;;;;;5032258;28;20555;-83
2021/04/18 07:44:07;;;;;;;11.35;7.57;;;6.50;99.90;;;;;;5032178;28;20115;-82
2021/04/18 07:46:32;;;;;;;11.70;7.70;;;6.60;99.90;;;;;;5031397;28;20124;-82
2021/04/18 07:48:59;;;;;;;12.82;8.10;;;6.70;99.90;;;;;;5031958;28;20112;-82
2021/04/18 07:51:26;;;;;;;15.38;7.70;;;6.80;99.90;;;;;;5048579;28;20029;-82
2021/04/18 07:53:52;;;;;;;9.43;6.68;;;6.80;99.90;;;;;;5048786;28;20021;-82
2021/04/18 07:56:17;;;;;;;10.20;6.75;;;6.90;99.90;;;;;;5033250;28;20109;-83
2021/04/18 07:58:44;;;;;;;12.43;7.07;;;7.00;99.90;;;;;;5048669;28;20053;-82
2021/04/18 08:01:11;;;;;;;8.50;5.95;;;7.00;99.90;;;;;;5033245;28;20496;-83
2021/04/18 08:03:39;;;;;;;11.63;6.68;;;7.20;99.90;;;;;;5033318;28;20029;-83
2021/04/18 08:06:05;;;;;;;11.27;7.25;;;7.30;99.90;;;;;;5033063;28;20116;-82
2021/04/18 08:08:48;;;;;;;12.45;6.93;;;7.50;99.90;;;;;;5031961;28;20117;-82
2021/04/18 08:11:15;;;;;;;10.88;6.95;;;7.60;99.90;;;;;;5048427;28;20053;-84
2021/04/18 08:13:44;;;;;;;10.50;7.22;;;7.70;99.90;;;;;;5048573;28;20028;-84
2021/04/18 08:16:11;;;;;;;11.82;7.53;;;7.80;99.90;;;;;;5032000;28;20036;-84
2021/04/18 08:18:47;;;;;;;13.43;8.05;;;7.80;99.90;;;;;;5019175;28;20026;-83
2021/04/18 08:21:31;;;;;;;11.80;7.57;;;7.70;99.90;;;;;;5024756;28;20052;-85
2021/04/18 08:23:59;;;;;;;12.20;7.65;;;7.70;99.90;;;;;;5027249;28;20026;-84
2021/04/18 08:26:28;;;;;;;16.00;8.75;;;7.80;99.90;;;;;;5039233;28;20075;-83
2021/04/18 08:28:58;;;;;;;14.18;8.25;;;7.80;99.90;;;;;;5025915;28;20040;-84
2021/04/18 08:31:32;;;;;;;13.10;9.05;;;7.70;99.90;;;;;;5029821;28;20128;-84
2021/04/18 08:34:05;;;;;;;14.18;8.18;;;7.80;99.90;;;;;;5029892;28;20024;-83
2021/04/18 08:36:34;;;;;;;12.70;7.70;;;7.80;99.90;;;;;;5030018;28;20042;-83
2021/04/18 08:39:05;;;;;;;14.73;7.97;;;7.90;99.90;;;;;;5030101;28;20044;-77
2021/04/18 08:41:36;;;;;;;12.68;8.95;;;7.90;99.90;;;;;;5029032;28;20060;-77
2021/04/18 08:44:17;;;;;;;10.82;7.95;;;8.00;99.90;;;;;;5030964;28;20056;-78
2021/04/18 08:46:44;;;;;;;12.20;8.35;;;8.10;99.90;;;;;;5044699;28;20022;-78
2021/04/18 08:49:10;;;;;;;11.85;8.00;;;8.10;99.90;;;;;;5030278;28;20025;-77
2021/04/18 08:51:39;;;;;;;13.23;8.95;;;8.20;99.90;;;;;;5028434;28;20032;-77
2021/04/18 08:54:05;;;;;;;11.50;7.65;;;8.40;99.90;;;;;;5029619;28;20044;-77
2021/04/18 08:56:44;;;;;;;13.13;7.97;;;8.50;99.90;;;;;;5029823;28;20519;-77
2021/04/18 08:59:11;;;;;;;9.93;7.90;;;8.60;99.90;;;;;;5030060;28;20029;-78
2021/04/18 09:01:37;;;;;;;13.05;8.15;;;8.70;99.90;;;;;;5030922;28;20381;-78
2021/04/18 09:04:04;;;;;;;11.50;6.57;;;8.80;99.90;;;;;;5030871;28;20021;-78
2021/04/18 09:06:32;;;;;;;10.05;6.85;;;8.90;99.90;;;;;;5021799;28;20036;-77
2021/04/18 09:08:59;;;;;;;15.32;7.57;;;9.10;99.90;;;;;;5027529;28;20017;-78
2021/04/18 09:11:24;;;;;;;13.00;7.43;;;9.20;99.90;;;;;;5030237;28;20041;-78
2021/04/18 09:14:00;;;;;;;13.15;8.25;;;9.30;99.90;;;;;;5031005;28;20554;-77
2021/04/18 09:16:31;;;;;;;11.93;7.50;;;9.40;99.90;;;;;;5017062;28;20026;-77
2021/04/18 09:19:23;;;;;;;8.60;6.13;;;9.50;99.90;;;;;;5036664;28;20022;-79
2021/04/18 09:21:54;;;;;;;11.48;7.20;;;9.60;97.80;;;;;;5015244;28;20497;-79
2021/04/18 09:24:20;;;;;;;13.38;8.50;;;9.60;98.00;;;;;;5029968;28;20262;-79
2021/04/18 09:27:26;;;;;;;11.43;7.32;;;9.80;98.40;;;;;;5034637;28;20021;-78
2021/04/18 09:29:59;;;;;;;14.60;8.98;;;10.00;97.10;;;;;;5022821;28;20110;-78
2021/04/18 09:32:38;;;;;;;12.45;7.90;;;10.10;97.40;;;;;;5033260;28;20021;-77
2021/04/18 09:35:09;;;;;;;11.30;7.65;;;10.30;96.90;;;;;;5033264;28;20100;-77
2021/04/18 09:37:41;;;;;;;11.82;7.35;;;10.50;96.20;;;;;;5026352;28;20385;-77
2021/04/18 09:40:09;;;;;;;13.30;7.25;;;10.60;96.40;;;;;;5022346;28;20075;-77
2021/04/18 09:42:38;;;;;;;10.93;6.55;;;11.10;97.00;;;;;;5032450;28;20017;-78
2021/04/18 09:45:08;;;;;;;8.73;5.72;;;13.00;92.30;;;;;;5032055;28;20045;-78
2021/04/18 09:47:35;;;;;;;5.85;3.97;;;15.10;84.00;;;;;;5032871;28;20017;-77
2021/04/18 09:50:07;;;;;;;6.28;3.67;;;16.60;70.70;;;;;;5022044;28;20013;-77
2021/04/18 09:52:38;;;;;;;8.10;5.38;;;17.70;62.70;;;;;;5031773;28;20033;-78
2021/04/18 09:55:14;;;;;;;6.75;4.43;;;18.70;59.90;;;;;;5030588;28;20436;-78
2021/04/18 09:57:44;;;;;;;8.07;4.53;;;19.20;57.90;;;;;;5030102;28;20021;-78
2021/04/18 10:00:17;;;;;;;5.55;3.97;;;19.60;56.60;;;;;;5028565;28;20021;-78
2021/04/18 10:03:09;;;;;;;5.13;3.20;;;19.90;52.80;;;;;;5027448;28;20022;-78
2021/04/18 10:05:42;;;;;;;5.05;3.70;;;20.60;52.60;;;;;;5021797;28;20080;-78
2021/04/18 10:08:26;;;;;;;6.88;4.18;;;21.10;50.00;;;;;;5027845;28;20014;-78
2021/04/18 10:10:53;;;;;;;4.57;3.05;;;21.50;48.50;;;;;;5032027;28;20022;-78
2021/04/18 10:13:46;;;;;;;6.28;3.50;;;21.80;47.40;;;;;;5029322;28;20028;-78
2021/04/18 10:16:13;;;;;;;5.57;3.17;;;22.00;46.60;;;;;;5030426;28;20033;-78
2021/04/18 10:18:41;;;;;;;5.60;3.33;;;22.70;46.50;;;;;;5029238;28;20095;-79
2021/04/18 10:21:21;;;;;;;5.82;3.50;;;22.30;44.80;;;;;;5030586;28;20033;-79
2021/04/18 10:23:49;;;;;;;7.03;4.13;;;22.50;44.10;;;;;;5039596;28;20025;-79
2021/04/18 10:26:18;;;;;;;4.70;3.20;;;22.30;43.80;;;;;;5018597;28;20461;-79
2021/04/18 10:28:45;;;;;;;6.30;3.97;;;22.10;44.70;;;;;;5034041;28;20022;-78
2021/04/18 10:31:12;;;;;;;5.50;3.17;;;20.90;44.50;;;;;;5032854;28;20488;-79
2021/04/18 10:33:38;;;;;;;6.25;3.63;;;20.50;46.70;;;;;;5032908;28;20028;-78
2021/04/18 10:36:04;;;;;;;4.90;3.42;;;20.80;46.40;;;;;;5032250;28;20104;-79
2021/04/18 10:38:29;;;;;;;4.55;3.10;;;20.80;47.90;;;;;;5033161;28;20072;-78
2021/04/18 10:40:55;;;;;;;4.45;3.40;;;22.00;47.30;;;;;;5031689;28;20033;-78
2021/04/18 10:43:20;;;;;;;7.55;4.65;;;22.60;45.20;;;;;;5031746;28;20025;-78
2021/04/18 10:45:46;;;;;;;4.13;3.08;;;23.00;43.20;;;;;;5032821;28;20064;-79
2021/04/18 10:48:11;;;;;;;6.22;3.75;;;23.70;43.80;;;;;;5045430;28;20017;-78
2021/04/18 10:50:38;;;;;;;4.40;2.42;;;24.20;41.80;;;;;;5031165;28;20108;-78
2021/04/18 10:53:03;;;;;;;4.70;2.40;;;25.30;42.90;;;;;;5046598;28;20022;-78
2021/04/18 10:55:29;;;;;;;6.78;3.90;;;26.70;41.00;;;;;;5047118;28;20029;-79
2021/04/18 10:57:55;;;;;;;4.15;3.20;;;27.10;38.80;;;;;;5031252;28;20397;-78
2021/04/18 11:00:21;;;;;;;5.32;2.97;;;27.20;38.30;;;;;;5040177;28;20033;-79
2021/04/18 11:02:47;;;;;;;5.10;3.28;;;26.40;38.00;;;;;;5029535;28;20026;-79
2021/04/18 11:05:13;;;;;;;4.05;3.15;;;26.20;37.80;;;;;;5030285;28;20017;-79
2021/04/18 11:07:39;;;;;;;4.70;3.03;;;26.00;39.10;;;;;;5029382;28;20112;-78
2021/04/18 11:10:06;;;;;;;3.75;2.45;;;27.00;38.30;;;;;;5027351;28;20466;-78
2021/04/18 11:12:32;;;;;;;2.92;2.10;;;28.20;36.90;;;;;;5030414;28;20081;-78
2021/04/18 11:14:57;;;;;;;4.55;2.58;;;29.20;36.60;;;;;;5026234;28;20030;-78
2021/04/18 11:17:23;;;;;;;3.90;3.28;;;30.10;35.80;;;;;;5030264;28;20425;-78
2021/04/18 11:19:50;;;;;;;4.13;2.88;;;29.90;33.90;;;;;;5027887;28;20524;-79
2021/04/18 11:22:16;;;;;;;3.45;1.92;;;29.40;32.70;;;;;;5028930;28;20028;-79
2021/04/18 11:24:42;;;;;;;4.05;2.58;;;29.50;33.00;;;;;;5023483;28;20029;-79
2021/04/18 11:27:08;;;;;;;3.05;1.83;;;29.70;31.50;;;;;;5025488;28;20017;-79
2021/04/18 11:29:34;;;;;;;3.53;2.47;;;29.60;33.90;;;;;;5033198;28;20026;-79
2021/04/18 11:31:59;;;;;;;5.88;3.70;;;30.10;31.90;;;;;;5031899;28;20037;-79
2021/04/18 11:34:25;;;;;;;2.92;1.85;;;29.60;32.10;;;;;;5031713;28;20385;-79
2021/04/18 11:36:51;;;;;;;5.50;3.50;;;29.20;33.60;;;;;;5032734;28;20053;-79
2021/04/18 11:39:16;;;;;;;3.83;3.28;;;29.80;32.20;;;;;;5036131;28;20033;-78
2021/04/18 11:41:42;;;;;;;3.65;2.38;;;29.10;31.70;;;;;;5031299;28;20025;-79
2021/04/18 11:44:08;;;;;;;5.57;3.30;;;29.10;33.80;;;;;;5047796;28;20026;-79
2021/04/18 11:46:35;;;;;;;3.17;2.50;;;29.30;33.00;;;;;;5031814;28;20492;-79
2021/04/18 11:49:00;;;;;;;4.15;2.35;;;29.10;33.30;;;;;;5033017;28;20033;-78
2021/04/18 11:51:26;;;;;;;3.58;2.40;;;29.70;34.10;;;;;;5031376;28;20366;-79
2021/04/18 11:53:52;;;;;;;3.40;2.45;;;30.80;33.80;;;;;;5031541;28;20041;-79
2021/04/18 11:56:17;;;;;;;2.45;2.10;;;31.00;31.80;;;;;;5030821;28;20021;-79
2021/04/18 11:58:43;;;;;;;3.88;2.17;;;31.20;32.80;;;;;;5032737;28;20033;-79
2021/04/18 12:01:08;;;;;;;3.10;2.05;;;31.90;32.70;;;;;;5032699;28;20408;-79
2021/04/18 12:03:34;;;;;;;2.92;2.05;;;32.80;32.60;;;;;;5031358;28;20065;-79
2021/04/18 12:05:59;;;;;;;3.05;2.38;;;33.50;32.00;;;;;;5032507;28;20410;-79
2021/04/18 12:08:25;;;;;;;4.30;2.78;;;33.90;31.30;;;;;;5032192;28;20033;-79
2021/04/18 12:10:51;;;;;;;3.20;2.13;;;33.30;29.50;;;;;;5031077;28;20045;-79
2021/04/18 12:13:16;;;;;;;3.90;2.70;;;32.90;30.00;;;;;;5032032;28;20026;-79
2021/04/18 12:15:44;;;;;;;6.40;3.13;;;32.70;30.00;;;;;;5030001;28;20076;-79
2021/04/18 12:18:10;;;;;;;5.90;3.63;;;32.40;29.70;;;;;;5024223;28;20409;-79
2021/04/18 12:20:36;;;;;;;4.47;3.47;;;30.70;30.00;;;;;;5022258;28;20512;-79
2021/04/18 12:23:01;;;;;;;5.10;3.13;;;29.30;30.80;;;;;;5018167;28;20049;-79
2021/04/18 12:25:27;;;;;;;3.85;2.53;;;29.20;31.80;;;;;;5027850;28;20021;-79
2021/04/18 12:27:52;;;;;;;6.38;3.78;;;29.80;32.70;;;;;;5030659;28;20218;-79
2021/04/18 12:30:18;;;;;;;6.40;2.50;;;29.90;29.90;;;;;;5031172;28;20125;-79
2021/04/18 12:32:46;;;;;;;3.15;2.30;;;29.60;31.00;;;;;;5030924;28;20028;-79
2021/04/18 12:35:12;;;;;;;4.37;2.30;;;30.00;31.50;;;;;;5030982;28;20026;-78
2021/04/18 12:37:37;;;;;;;7.20;3.80;;;30.50;31.00;;;;;;5031920;28;20272;-79
2021/04/18 12:40:04;;;;;;;4.78;3.03;;;29.40;29.90;;;;;;5030769;28;20020;-79
2021/04/18 12:42:30;;;;;;;5.15;3.60;;;27.90;31.70;;;;;;5032147;28;20550;-79
2021/04/18 12:44:55;;;;;;;4.30;2.92;;;28.20;32.10;;;;;;5030712;28;20041;-79
2021/04/18 12:47:21;;;;;;;5.07;3.63;;;28.40;31.20;;;;;;5047808;28;20021;-79
2021/04/18 12:49:47;;;;;;;4.05;2.90;;;28.30;31.00;;;;;;5032125;28;20473;-79